Ride Results

St. Albans (29-09-2013)
Ride distance: 80.0 km

Outcomes - St. Albans (29-09-2013)
Division No. of Entries Retired / DNE Completed Withdrawn Ineligible V/O Percentage Completed
HW 12 - 12 - - - 100.00%
MW 26 - 20 2 - 4 76.92%
LW 15 - 12 2 - 1 80.00%
JN 9 - 8 - - 1 88.89%
Totals 62 - 52 4 - 6 83.87%
Results - St. Albans (29-09-2013)
No. Rider Horse Place Time Leg Speeds Total
Km/Hr
H/R bpm
Heavyweight
13 Greg Moore Parkview Armageddon 1 6:06:00 13.3, 12.9 13.11 39, 43, 52 (Avg:47)
41 Susan Luthy Ningadoo Kolo 2 (BC) 6:28:00 11.7, 13.0 12.37 40, 41, 49 (Avg:45)
44 Jack Johnson Sharahd Narang 3 6:34:00 11.1, 13.4 12.18 33, 44, 49 (Avg:46)
46 Scott Peters La Danza D'Askari 3 6:34:00 11.3, 13.1 12.18 39, 47, 55 (Avg:51)
39 Con Bouzianis Conderosa Millenium Silver 5 6:46:00 10.8, 13.0 11.82 38, 40, 42 (Avg:41)
5 Gavin Peacock Chop Chop 6 7:13:00 10.7, 11.4 11.09 32, 40, 46 (Avg:43)
27 Alan Mackinder Jezabelle Sweet Dreams 7 7:15:00 9.9, 12.4 11.03 36, 44, 47 (Avg:45)
25 Roy Barsby Dumaresq Buzz 8 7:24:00 10.0, 11.7 10.81 33, 38, 40 (Avg:39)
48 Rod Mitchell Aloha Naja 9 7:28:00 10.2, 11.2 10.71 34, 39, 52 (Avg:45)
20 Nigel Colefax Inshallah Echo's Flight 10 8:05:00 9.8, 9.9 9.90 46, 42, 44 (Avg:43)
58 Jason Duff Aratahnes Premier 11 8:54:00 9.9, 8.2 8.99 36, 44, 45 (Avg:44)
56 Allan Caslick A'Landell Soul 12 9:21:00 8.0, 9.1 8.56 46, 40, 44 (Avg:42)
Middleweight
29 Andrew Mackinder Sundown Park Cariad 1 (BC) 5:25:50 13.0, 16.9 14.73 32, 39, 40 (Avg:39)
15 Brad Dillon Banfield Khamsin 2 5:45:00 12.5, 15.5 13.91 46, 44, 46 (Avg:45)
23 Gil Stevenson Thalaba Touch of Gold 2 5:45:00 12.5, 15.5 13.91 40, 44, 49 (Avg:46)
6 Thomas Hermann TTH Headliner 4 5:58:00 12.7, 14.1 13.41 34, 38, 43 (Avg:40)
22 Allana Rempel Ralvon Milarna 5 6:12:00 12.5, 13.2 12.90 34, 41, 48 (Avg:44)
45 Christopher Clarke Castlebar Icon 6 6:34:00 11.3, 13.1 12.18 38, 41, 43 (Avg:42)
21 Clare Feary Double TT It ' n' Abit 7 6:44:00 10.8, 13.1 11.88 40, 46, 50 (Avg:48)
14 Carol Major Saradon 7 6:44:00 10.8, 13.1 11.88 36, 40, 54 (Avg:47)
38 Tom Bouzianis Conderosa Sara 9 6:46:00 10.8, 13.0 11.82 32, 39, 38 (Avg:38)
52 Peter Norman Mountain Ash Tabasco 10 6:48:00 11.1, 12.4 11.76 42, 44, 52 (Avg:48)
54 Mitchell Ravallion Danjera Montana 10 6:48:00 11.3, 12.2 11.76 40, 41, 60 (Avg:50)
155 Peter Kelly Ramalea Laila 12 6:59:00 11.3, 11.5 11.46 36, 47, 52 (Avg:49)
30 Michaela Araldi Twynham El Nasiriyah 13 7:15:00 9.9, 12.4 11.03 32, 43, 44 (Avg:43)
28 Ben Hudson Devious Chloe Bella 13 7:15:00 9.9, 12.4 11.03 33, 38, 46 (Avg:42)
24 Deanna Trevena Dumaresq Desert Sky 15 7:24:00 10.0, 11.7 10.81 31, 42, 50 (Avg:46)
62 Kayte Barnard S'Shaada Quill 16 7:35:00 10.5, 10.5 10.55 52, 49, 50 (Avg:49)
50 Courtney Chapman Kintamani Jaffah 16 7:35:00 9.2, 12.2 10.55 34, 41, 52 (Avg:46)
12 Fiona Coddington Wanstead Silver Flyer 18 8:12:00 9.7, 9.7 9.76 44, 54, 60 (Avg:57)
59 Brooke Campbell Cagiva 19 8:54:00 9.9, 8.2 8.99 40, 36, 39 (Avg:37)
55 Alex Baczocha Ralvon Secret 20 9:03:00 8.0, 9.7 8.84 44, 38, 44 (Avg:41)
9 Gail Fisher Raymar Aden Lame L2 0:00:00 9.9, 11.6 - 42, 45, 48 (Avg:46)
53 Angela Molnar Out of Africa Lame L2 0:00:00 11.0, 11.7 - 36, 39, 53 (Avg:46)
8 Kelsey Young Jon De Le Classic Lame L2 0:00:00 10.7, 12.4 - 35, 45, 56 (Avg:50)
31 Darryl King Shanadarr Noah Withdrawn L1 0:00:00 - - 35, 50 (Avg:50)
26 Fiona Meller Malu Vale Embers Lame L1 0:00:00 10.5 - 33, 36 (Avg:36)
32 Karin Santoso Dashanda Saab Withdrawn L1 0:00:00 - - 33, 38 (Avg:38)
Lightweight
16 Cherry Cummins Winter Hill Alice 1 5:25:15 13.0, 16.9 14.76 34, 41, 49 (Avg:45)
35 Sally Fenner Cherox Aladdin 2 (BC) 5:25:20 13.3, 16.5 14.75 35, 43, 45 (Avg:44)
7 Amanda Apperley Jon De Le Jasper 3 6:01:00 12.6, 13.9 13.30 38, 44, 57 (Avg:50)
11 Sue Todd Shalacey Bear 3 6:01:00 12.6, 13.9 13.30 39, 49, 58 (Avg:53)
43 Barbara Kurcz Sharahd Chemoss 5 6:34:00 11.1, 13.4 12.18 34, 39, 53 (Avg:46)
37 Samar Al-Saleh Conderosa Rassim 6 6:46:00 10.8, 13.0 11.82 31, 37, 46 (Avg:41)
49 Patsy Trevor Shahfa 7 7:20:00 11.4, 10.3 10.91 30, 37, 41 (Avg:39)
61 Bree Hollingsworth Aloha Vest 8 7:35:00 10.5, 10.5 10.55 42, 45, 54 (Avg:49)
60 Mary Hollingsworth Henley Farm Hunaak 8 7:35:00 10.5, 10.5 10.55 38, 44, 45 (Avg:44)
3 Sonya Nicholls Suncrest Ghazaal 10 9:03:00 8.0, 9.7 8.84 36, 38, 43 (Avg:40)
4 Faith Robinson Espirit Jet 10 9:03:00 8.0, 9.7 8.84 42, 45, 56 (Avg:50)
33 Shan Symons Dashanda Serene 10 9:03:00 8.2, 9.5 8.84 32, 36, 44 (Avg:40)
34 Dody Sinfield Jewkes Lame L2 0:00:00 9.3, 10.1 - 36, 41, 44 (Avg:42)
2 Anne Hills Kerewong Shelfyre Withdrawn L1 0:00:00 - - 39, 42 (Avg:42)
36 Elaine Kirby Excessabelle Withdrawn L1 0:00:00 - - 28, 38 (Avg:38)
Junior
42 Tayla Warren Sharahd Lateefa 1 (BC) 6:06:00 11.1, 15.8 13.11 33, 42, 45 (Avg:43)
40 Brooke Luthy Mystical Knight 2 6:28:00 11.7, 13.0 12.37 33, 39, 49 (Avg:44)
19 Victoria Bice The Byzantine Diamonds 3 7:01:00 11.0, 11.7 11.40 36, 40, 45 (Avg:42)
18 Josephine Jansen Zulu's Dark Angel 3 7:01:00 11.0, 11.7 11.40 39, 43, 42 (Avg:42)
51 Georgia Curry Kintamani Silver Motif 5 7:35:00 9.2, 12.2 10.55 32, 47, 54 (Avg:50)
17 Tomeika Bond-Pevy Makhtar 6 8:05:00 9.8, 9.9 9.90 39, 44, 55 (Avg:49)
10 Cybele Coddington Burren-dah Narla 7 8:12:00 9.7, 9.7 9.76 30, 34, 46 (Avg:40)
57 Shannen Thorsby A'Landell Sky Pilot 8 9:21:00 8.0, 9.1 8.56 36, 40, 48 (Avg:44)
47 Shantel Nagle Conderosa Pegasus Lame L2 0:00:00 9.3, 10.4 - 46, 46, 51 (Avg:48)